createdAt,value
2019-05-10T00:01:45.134Z,4.90
2019-05-10T00:04:18.059Z,4.90
2019-05-10T00:06:51.142Z,4.90
2019-05-10T00:09:18.185Z,4.90
2019-05-10T00:12:00.079Z,4.90
2019-05-10T00:14:31.135Z,4.90
2019-05-10T00:16:58.397Z,4.90
2019-05-10T00:19:26.394Z,4.70
2019-05-10T00:21:53.897Z,4.70
2019-05-10T00:24:20.912Z,4.70
2019-05-10T00:26:48.026Z,4.70
2019-05-10T00:29:18.149Z,4.70
2019-05-10T00:31:46.730Z,4.60
2019-05-10T00:34:14.543Z,4.70
2019-05-10T00:36:42.235Z,4.70
2019-05-10T00:39:10.046Z,4.60
2019-05-10T00:41:37.022Z,4.60
2019-05-10T00:44:03.864Z,4.60
2019-05-10T00:46:31.490Z,4.60
2019-05-10T00:48:58.609Z,4.50
2019-05-10T00:51:25.454Z,4.50
2019-05-10T00:53:52.317Z,4.40
2019-05-10T00:56:19.831Z,4.40
2019-05-10T00:58:46.864Z,4.40
2019-05-10T01:01:13.777Z,4.40
2019-05-10T01:03:41.526Z,4.30
2019-05-10T01:06:08.463Z,4.30
2019-05-10T01:08:36.406Z,4.20
2019-05-10T01:11:04.112Z,4.20
2019-05-10T01:13:31.497Z,4.10
2019-05-10T01:15:59.001Z,4.10
2019-05-10T01:18:26.170Z,4.10
2019-05-10T01:20:53.719Z,4.20
2019-05-10T01:23:21.280Z,4.30
2019-05-10T01:25:48.215Z,4.30
2019-05-10T01:28:15.062Z,4.40
2019-05-10T01:30:41.813Z,4.20
2019-05-10T01:33:08.597Z,4.10
2019-05-10T01:35:35.334Z,4.10
2019-05-10T01:38:02.455Z,4.00
2019-05-10T01:43:09.390Z,3.90
2019-05-10T01:45:36.147Z,3.90
2019-05-10T01:48:02.894Z,4.00
2019-05-10T01:50:29.739Z,4.00
2019-05-10T01:52:56.480Z,4.00
2019-05-10T01:55:23.205Z,4.00
2019-05-10T01:57:50.011Z,3.90
2019-05-10T02:00:16.760Z,4.00
2019-05-10T02:02:44.266Z,4.00
2019-05-10T02:05:11.182Z,4.00
2019-05-10T02:07:38.678Z,4.20
2019-05-10T02:10:05.536Z,4.10
2019-05-10T02:12:32.398Z,4.20
2019-05-10T02:14:59.274Z,4.20
2019-05-10T02:17:26.716Z,4.40
2019-05-10T02:19:54.256Z,4.40
2019-05-10T02:22:21.120Z,4.40
2019-05-10T02:24:47.900Z,4.50
2019-05-10T02:27:15.406Z,4.60
2019-05-10T02:29:43.025Z,4.70
2019-05-10T02:32:09.803Z,4.70
2019-05-10T02:34:36.614Z,4.90
2019-05-10T02:37:03.390Z,5.00
2019-05-10T02:39:30.139Z,5.10
2019-05-10T02:41:56.934Z,5.10
2019-05-10T02:44:23.695Z,5.20
2019-05-10T02:46:50.530Z,5.20
2019-05-10T02:49:17.263Z,5.30
2019-05-10T02:51:43.982Z,5.40
2019-05-10T02:54:11.810Z,5.60
2019-05-10T02:56:38.609Z,5.70
2019-05-10T02:59:05.371Z,5.90
2019-05-10T03:01:32.241Z,5.90
2019-05-10T03:03:59.744Z,6.20
2019-05-10T03:06:26.511Z,6.10
2019-05-10T03:08:54.093Z,6.40
2019-05-10T03:11:20.910Z,6.30
2019-05-10T03:13:47.751Z,6.50
2019-05-10T03:16:14.592Z,6.60
2019-05-10T03:18:41.420Z,6.70
2019-05-10T03:21:08.289Z,6.70
2019-05-10T03:23:35.121Z,6.70
2019-05-10T03:26:01.967Z,6.80
2019-05-10T03:28:28.806Z,6.80
2019-05-10T03:30:55.649Z,6.70
2019-05-10T03:33:22.510Z,6.80
2019-05-10T03:35:49.435Z,6.90
2019-05-10T03:38:16.177Z,7.00
2019-05-10T03:40:43.023Z,7.10
2019-05-10T03:43:09.865Z,7.10
2019-05-10T03:45:36.603Z,7.10
2019-05-10T03:48:03.557Z,7.10
2019-05-10T03:50:30.495Z,7.20
2019-05-10T03:52:57.337Z,7.30
2019-05-10T03:55:24.179Z,7.40
2019-05-10T03:57:51.021Z,7.50
2019-05-10T04:00:17.863Z,7.50
2019-05-10T04:02:44.705Z,7.50
2019-05-10T04:05:11.549Z,7.60
2019-05-10T04:07:38.392Z,7.80
2019-05-10T04:10:05.234Z,7.90
2019-05-10T04:12:31.977Z,8.20
2019-05-10T04:14:58.924Z,8.90
2019-05-10T04:17:25.767Z,10.20
2019-05-10T04:19:52.608Z,10.80
2019-05-10T04:22:19.448Z,11.40
2019-05-10T04:24:46.294Z,12.20
2019-05-10T04:27:30.731Z,11.70
2019-05-10T04:29:40.103Z,12.00
2019-05-10T04:32:07.127Z,12.40
2019-05-10T04:34:33.874Z,12.90
2019-05-10T04:37:00.708Z,13.50
2019-05-10T04:39:28.272Z,13.30
2019-05-10T04:41:55.020Z,13.30
2019-05-10T04:44:21.981Z,12.70
2019-05-10T04:46:48.803Z,12.60
2019-05-10T04:49:15.744Z,12.10
2019-05-10T04:51:42.485Z,11.60
2019-05-10T04:54:09.329Z,11.70
2019-05-10T04:56:36.889Z,11.60
2019-05-10T04:59:03.728Z,11.70
2019-05-10T05:01:30.475Z,11.60
2019-05-10T05:03:57.209Z,11.40
2019-05-10T05:06:24.057Z,10.70
2019-05-10T05:08:50.792Z,10.60
2019-05-10T05:11:17.738Z,10.60
2019-05-10T05:13:44.582Z,10.90
2019-05-10T05:16:11.325Z,11.10
2019-05-10T05:18:38.267Z,10.80
2019-05-10T05:21:05.111Z,11.00
2019-05-10T05:23:31.861Z,11.30
2019-05-10T05:25:59.519Z,11.50
2019-05-10T05:28:26.356Z,11.40
2019-05-10T05:30:53.194Z,12.00
2019-05-10T05:33:19.943Z,11.80
2019-05-10T05:35:46.680Z,11.60
2019-05-10T05:38:13.523Z,12.10
2019-05-10T05:40:40.570Z,12.40
2019-05-10T05:43:08.721Z,12.50
2019-05-10T05:45:36.080Z,12.90
2019-05-10T05:48:03.865Z,12.20
2019-05-10T05:50:30.605Z,12.50
2019-05-10T05:52:57.548Z,12.90
2019-05-10T05:55:30.577Z,12.90
2019-05-10T05:57:53.966Z,12.80
2019-05-10T06:00:23.608Z,13.00
2019-05-10T06:02:51.023Z,13.00
2019-05-10T06:05:32.908Z,13.10
2019-05-10T06:07:44.653Z,14.30
2019-05-10T06:10:17.034Z,15.10
2019-05-10T06:12:38.332Z,16.40
2019-05-10T06:15:05.165Z,17.10
2019-05-10T06:17:32.018Z,17.20
2019-05-10T06:20:00.860Z,17.60
2019-05-10T06:22:25.775Z,16.60
2019-05-10T06:24:53.895Z,17.10
2019-05-10T06:27:19.494Z,17.00
2019-05-10T06:29:46.334Z,18.40
2019-05-10T06:32:13.365Z,18.40
2019-05-10T06:34:40.252Z,16.80
2019-05-10T06:37:06.979Z,16.90
2019-05-10T06:39:33.910Z,19.70
2019-05-10T06:42:00.651Z,22.50
2019-05-10T06:44:31.129Z,23.90
2019-05-10T06:47:11.333Z,24.20
2019-05-10T06:49:40.857Z,24.70
2019-05-10T06:52:02.972Z,24.60
2019-05-10T06:54:29.818Z,24.20
2019-05-10T06:56:56.556Z,23.90
2019-05-10T06:59:24.907Z,23.80
2019-05-10T07:01:52.031Z,24.40
2019-05-10T07:04:16.989Z,23.10
2019-05-10T07:06:43.931Z,22.20
2019-05-10T07:09:10.873Z,22.50
2019-05-10T07:11:37.717Z,22.00
2019-05-10T07:14:04.663Z,24.00
2019-05-10T07:16:31.402Z,24.00
2019-05-10T07:19:00.629Z,25.40
2019-05-10T07:21:25.396Z,25.70
2019-05-10T07:23:52.346Z,26.50
2019-05-10T07:26:24.339Z,26.30
2019-05-10T07:28:46.228Z,25.30
2019-05-10T07:31:13.072Z,26.10
2019-05-10T07:33:40.208Z,27.90
2019-05-10T07:36:14.503Z,27.60
2019-05-10T07:38:34.009Z,27.40
2019-05-10T07:41:01.570Z,27.10
2019-05-10T07:43:28.953Z,27.10
2019-05-10T07:45:58.680Z,27.00
2019-05-10T07:48:23.271Z,28.60
2019-05-10T07:50:51.973Z,25.60
2019-05-10T07:53:23.111Z,25.60
2019-05-10T07:55:45.497Z,25.60
2019-05-10T07:58:12.334Z,23.80
2019-05-10T08:00:44.636Z,24.20
2019-05-10T08:03:15.185Z,24.30
2019-05-10T08:05:33.073Z,26.20
2019-05-10T08:07:59.913Z,26.70
2019-05-10T08:10:39.116Z,25.40
2019-05-10T08:13:08.470Z,25.10
2019-05-10T08:15:34.899Z,25.50
2019-05-10T08:18:01.133Z,24.50
2019-05-10T08:20:41.467Z,25.10
2019-05-10T08:22:54.794Z,25.90
2019-05-10T08:25:23.016Z,25.90
2019-05-10T08:27:51.204Z,24.10
2019-05-10T08:30:25.674Z,23.00
2019-05-10T08:32:42.683Z,23.30
2019-05-10T08:35:16.362Z,24.70
2019-05-10T08:37:38.042Z,24.10
2019-05-10T08:40:03.358Z,22.60
2019-05-10T08:42:43.875Z,24.30
2019-05-10T08:45:03.731Z,23.10
2019-05-10T08:47:27.654Z,23.10
2019-05-10T08:50:08.132Z,23.60
2019-05-10T08:52:27.295Z,22.20
2019-05-10T08:54:46.620Z,22.10
2019-05-10T08:57:18.535Z,20.90
2019-05-10T08:59:42.632Z,20.50
2019-05-10T09:02:07.354Z,20.30
2019-05-10T09:04:45.351Z,21.00
2019-05-10T09:07:02.860Z,20.90
2019-05-10T09:09:33.749Z,20.30
2019-05-10T09:11:57.736Z,20.00
2019-05-10T09:14:24.136Z,20.10
2019-05-10T09:16:57.541Z,19.80
2019-05-10T09:19:18.823Z,20.30
2019-05-10T09:21:49.623Z,19.60
2019-05-10T09:24:12.831Z,19.50
2019-05-10T09:26:38.134Z,19.50
2019-05-10T09:29:04.979Z,19.10
2019-05-10T09:31:32.646Z,19.30
2019-05-10T09:33:58.694Z,19.20
2019-05-10T09:36:31.223Z,19.00
2019-05-10T09:38:52.896Z,19.10
2019-05-10T09:41:19.293Z,19.30
2019-05-10T09:43:48.972Z,18.80
2019-05-10T09:46:14.196Z,18.80
2019-05-10T09:48:44.666Z,19.10
2019-05-10T09:51:08.512Z,18.00
2019-05-10T09:53:38.025Z,18.00
2019-05-10T09:56:03.089Z,18.20
2019-05-10T09:58:29.039Z,18.50
2019-05-10T10:01:12.824Z,18.30
2019-05-10T10:03:22.828Z,17.80
2019-05-10T10:05:54.976Z,18.00
2019-05-10T10:08:17.619Z,18.00
2019-05-10T10:10:43.561Z,18.50
2019-05-10T10:13:13.457Z,18.20
2019-05-10T10:15:37.440Z,17.90
2019-05-10T10:18:04.303Z,18.10
2019-05-10T10:20:36.007Z,18.60
2019-05-10T10:22:58.184Z,18.60
2019-05-10T10:25:27.790Z,18.50
2019-05-10T10:27:51.870Z,18.00
2019-05-10T10:30:21.578Z,18.30
2019-05-10T10:32:47.367Z,17.90
2019-05-10T10:35:13.320Z,17.60
2019-05-10T10:37:39.446Z,17.10
2019-05-10T10:40:08.730Z,16.50
2019-05-10T10:42:33.129Z,16.80
2019-05-10T10:44:59.980Z,17.00
2019-05-10T10:47:30.447Z,17.20
2019-05-10T10:49:53.658Z,17.10
2019-05-10T10:52:20.416Z,16.60
2019-05-10T10:54:47.924Z,16.40
2019-05-10T10:57:14.190Z,16.50
2019-05-10T10:59:41.030Z,16.50
2019-05-10T11:02:28.993Z,16.20
2019-05-10T11:04:40.236Z,16.50
2019-05-10T11:07:10.553Z,16.30
2019-05-10T11:09:31.001Z,16.60
2019-05-10T11:11:55.451Z,16.70
2019-05-10T11:14:22.189Z,17.10
2019-05-10T11:16:52.841Z,17.10
2019-05-10T11:19:15.957Z,17.00
2019-05-10T11:21:42.823Z,17.00
2019-05-10T11:24:17.729Z,16.60
2019-05-10T11:26:37.094Z,16.40
2019-05-10T11:29:03.658Z,16.40
2019-05-10T11:31:31.151Z,16.70
2019-05-10T11:33:59.215Z,16.70
2019-05-10T11:36:24.197Z,17.10
2019-05-10T11:38:53.612Z,16.70
2019-05-10T11:41:22.119Z,16.30
2019-05-10T11:43:44.817Z,16.40
2019-05-10T11:46:12.376Z,16.90
2019-05-10T11:48:41.890Z,16.80
2019-05-10T11:51:11.276Z,17.40
2019-05-10T11:53:32.801Z,17.50
2019-05-10T11:56:01.864Z,16.90
2019-05-10T11:58:26.486Z,17.30
2019-05-10T12:00:59.288Z,17.20
2019-05-10T12:03:23.454Z,17.20
2019-05-10T12:05:53.235Z,17.00
2019-05-10T12:08:14.677Z,17.00
2019-05-10T12:10:52.805Z,17.00
2019-05-10T12:13:19.125Z,16.90
2019-05-10T12:15:36.742Z,16.90
2019-05-10T12:18:04.730Z,16.50
2019-05-10T12:20:41.158Z,16.60
2019-05-10T12:22:57.270Z,16.30
2019-05-10T12:25:42.080Z,17.00
2019-05-10T12:27:52.421Z,17.60
2019-05-10T12:30:17.902Z,17.90
2019-05-10T12:32:55.634Z,18.00
2019-05-10T12:35:11.793Z,18.20
2019-05-10T12:37:39.460Z,17.50
2019-05-10T12:40:10.076Z,17.70
2019-05-10T12:42:32.321Z,16.60
2019-05-10T12:45:01.155Z,16.60
2019-05-10T12:47:26.110Z,16.60
2019-05-10T12:49:53.902Z,16.90
2019-05-10T12:52:22.078Z,16.30
2019-05-10T12:54:46.535Z,16.20
2019-05-10T12:57:13.383Z,16.10
2019-05-10T12:59:40.222Z,15.60
2019-05-10T13:02:11.014Z,15.70
2019-05-10T13:04:40.483Z,15.70
2019-05-10T13:07:00.854Z,15.90
2019-05-10T13:09:37.741Z,15.70
2019-05-10T13:12:03.876Z,15.40
2019-05-10T13:14:31.624Z,15.00
2019-05-10T13:16:58.364Z,14.60
2019-05-10T13:19:25.205Z,14.50
2019-05-10T13:21:53.829Z,14.70
2019-05-10T13:24:18.894Z,14.40
2019-05-10T13:26:45.840Z,14.20
2019-05-10T13:29:12.798Z,14.20
2019-05-10T13:31:42.616Z,14.50
2019-05-10T13:34:07.285Z,14.60
2019-05-10T13:36:36.980Z,14.60
2019-05-10T13:39:00.987Z,14.30
2019-05-10T13:41:27.920Z,14.40
2019-05-10T13:43:58.858Z,14.20
2019-05-10T13:46:21.557Z,14.60
2019-05-10T13:48:49.894Z,14.60
2019-05-10T13:51:17.747Z,14.80
2019-05-10T13:53:44.897Z,14.90
2019-05-10T13:56:14.148Z,14.70
2019-05-10T13:58:41.186Z,14.70
2019-05-10T14:01:13.031Z,14.80
2019-05-10T14:03:43.658Z,14.70
2019-05-10T14:06:02.269Z,14.90
2019-05-10T14:08:29.231Z,14.70
2019-05-10T14:11:01.523Z,14.60
2019-05-10T14:13:23.020Z,14.60
2019-05-10T14:15:50.478Z,14.50
2019-05-10T14:18:17.204Z,14.70
2019-05-10T14:20:44.265Z,14.60
2019-05-10T14:23:11.026Z,14.40
2019-05-10T14:25:38.992Z,14.50
2019-05-10T14:28:09.763Z,14.40
2019-05-10T14:30:32.252Z,14.20
2019-05-10T14:32:59.099Z,14.40
2019-05-10T14:35:25.936Z,14.20
2019-05-10T14:37:52.675Z,14.60
2019-05-10T14:40:27.763Z,14.30
2019-05-10T14:42:46.567Z,14.20
2019-05-10T14:45:13.512Z,14.20
2019-05-10T14:47:48.448Z,14.30
2019-05-10T14:50:08.320Z,14.00
2019-05-10T14:52:35.064Z,13.90
2019-05-10T14:55:02.124Z,14.10
2019-05-10T14:57:28.959Z,13.90
2019-05-10T14:59:55.798Z,14.00
2019-05-10T15:02:24.922Z,14.00
2019-05-10T15:04:49.789Z,14.10
2019-05-10T15:07:16.756Z,13.80
2019-05-10T15:09:43.581Z,13.80
2019-05-10T15:12:15.482Z,13.90
2019-05-10T15:14:37.497Z,13.80
2019-05-10T15:17:04.311Z,13.90
2019-05-10T15:19:31.697Z,13.80
2019-05-10T15:21:57.895Z,13.70
2019-05-10T15:24:24.944Z,13.60
2019-05-10T15:26:51.787Z,13.70
2019-05-10T15:29:22.372Z,13.50
2019-05-10T15:31:45.674Z,13.40
2019-05-10T15:34:12.418Z,13.40
2019-05-10T15:36:40.179Z,13.30
2019-05-10T15:39:07.128Z,13.40
2019-05-10T15:41:33.969Z,13.30
2019-05-10T15:44:00.814Z,13.20
2019-05-10T15:46:35.298Z,13.20
2019-05-10T15:48:54.394Z,13.20
2019-05-10T15:51:35.218Z,13.30
2019-05-10T15:53:48.907Z,13.30
2019-05-10T15:56:15.950Z,13.20
2019-05-10T15:58:42.889Z,13.10
2019-05-10T16:01:09.633Z,13.00
2019-05-10T16:03:36.580Z,13.00
2019-05-10T16:06:04.859Z,13.10
2019-05-10T16:08:32.045Z,13.10
2019-05-10T16:10:58.750Z,13.30
2019-05-10T16:13:25.598Z,13.20
2019-05-10T16:15:57.710Z,13.00
2019-05-10T16:18:19.274Z,13.00
2019-05-10T16:20:46.645Z,12.80
2019-05-10T16:23:14.190Z,12.50
2019-05-10T16:25:47.558Z,12.40
2019-05-10T16:28:07.874Z,12.40
2019-05-10T16:30:36.579Z,12.30
2019-05-10T16:33:01.666Z,12.40
2019-05-10T16:35:38.484Z,12.40
2019-05-10T16:37:55.555Z,12.40
2019-05-10T16:40:22.503Z,12.40
2019-05-10T16:42:49.651Z,12.40
2019-05-10T16:45:16.494Z,12.30
2019-05-10T16:47:43.438Z,12.50
2019-05-10T16:50:10.486Z,12.50
2019-05-10T16:52:37.533Z,12.40
2019-05-10T16:55:05.421Z,12.20
2019-05-10T16:57:37.335Z,11.90
2019-05-10T17:00:02.172Z,11.90
2019-05-10T17:02:25.520Z,11.70
2019-05-10T17:04:52.260Z,11.60
2019-05-10T17:07:20.611Z,11.40
2019-05-10T17:09:49.556Z,11.50
2019-05-10T17:12:12.831Z,11.50
2019-05-10T17:14:39.731Z,11.60
2019-05-10T17:17:06.574Z,11.60
2019-05-10T17:19:34.028Z,11.50
2019-05-10T17:22:00.261Z,11.40
2019-05-10T17:24:27.005Z,11.50
2019-05-10T17:26:53.788Z,11.50
2019-05-10T17:29:21.302Z,11.40
2019-05-10T17:31:48.247Z,11.40
2019-05-10T17:34:22.128Z,11.30
2019-05-10T17:36:41.983Z,11.40
2019-05-10T17:39:09.423Z,11.40
2019-05-10T17:41:36.934Z,11.20
2019-05-10T17:44:03.784Z,11.20
2019-05-10T17:46:30.532Z,11.30
2019-05-10T17:48:57.235Z,11.20
2019-05-10T17:51:24.704Z,11.10
2019-05-10T17:53:54.927Z,11.10
2019-05-10T17:56:18.325Z,11.20
2019-05-10T17:58:45.779Z,11.30
2019-05-10T18:01:12.499Z,11.20
2019-05-10T18:03:39.258Z,11.20
2019-05-10T18:06:06.132Z,11.00
2019-05-10T18:08:33.746Z,10.70
2019-05-10T18:11:04.352Z,10.80
2019-05-10T18:13:30.627Z,10.80
2019-05-10T18:15:57.395Z,10.70
2019-05-10T18:18:24.588Z,10.70
2019-05-10T18:20:51.483Z,10.60
2019-05-10T18:23:21.052Z,10.70
2019-05-10T18:25:46.219Z,10.70
2019-05-10T18:28:16.590Z,10.60
2019-05-10T18:30:41.755Z,10.60
2019-05-10T18:33:12.249Z,10.60
2019-05-10T18:35:35.838Z,10.40
2019-05-10T18:38:03.868Z,10.50
2019-05-10T18:40:32.180Z,10.50
2019-05-10T18:43:03.656Z,10.40
2019-05-10T18:45:28.563Z,10.30
2019-05-10T18:47:52.107Z,10.20
2019-05-10T18:50:19.039Z,10.10
2019-05-10T18:52:46.742Z,9.90
2019-05-10T18:55:13.701Z,9.90
2019-05-10T18:57:45.413Z,9.70
2019-05-10T19:00:08.735Z,9.60
2019-05-10T19:02:35.772Z,9.50
2019-05-10T19:05:02.923Z,9.40
2019-05-10T19:07:30.786Z,9.00
2019-05-10T19:09:58.961Z,8.90
2019-05-10T19:12:26.294Z,8.90
2019-05-10T19:14:53.269Z,8.80
2019-05-10T19:17:20.410Z,8.70
2019-05-10T19:19:47.358Z,8.50
2019-05-10T19:22:15.225Z,8.30
2019-05-10T19:24:42.262Z,8.30
2019-05-10T19:27:10.240Z,8.20
2019-05-10T19:29:38.638Z,8.20
2019-05-10T19:32:04.051Z,8.10
2019-05-10T19:34:30.967Z,8.00
2019-05-10T19:36:58.247Z,7.90
2019-05-10T19:39:25.855Z,7.80
2019-05-10T19:42:02.922Z,7.80
2019-05-10T19:44:19.593Z,7.80
2019-05-10T19:46:46.501Z,7.80
2019-05-10T19:49:15.595Z,7.80
2019-05-10T19:51:42.017Z,7.70
2019-05-10T19:54:08.480Z,7.70
2019-05-10T19:56:37.096Z,7.70
2019-05-10T19:59:05.396Z,7.60
2019-05-10T20:01:29.931Z,7.50
2019-05-10T20:03:58.311Z,7.20
2019-05-10T20:06:26.708Z,7.20
2019-05-10T20:08:54.045Z,7.10
2019-05-10T20:11:20.887Z,7.10
2019-05-10T20:13:48.450Z,6.90
2019-05-10T20:16:15.595Z,6.90
2019-05-10T20:18:42.546Z,6.80
2019-05-10T20:21:09.589Z,6.80
2019-05-10T20:23:36.844Z,6.80
2019-05-10T20:26:04.300Z,6.70
2019-05-10T20:28:32.579Z,6.60
2019-05-10T20:31:00.549Z,6.60
2019-05-10T20:33:27.398Z,6.60
2019-05-10T20:35:54.135Z,6.60
2019-05-10T20:38:20.971Z,6.60
2019-05-10T20:40:47.712Z,6.60
2019-05-10T20:43:14.660Z,6.50
2019-05-10T20:45:41.603Z,6.40
2019-05-10T20:48:08.461Z,6.50
2019-05-10T20:50:35.289Z,6.40
2019-05-10T20:53:02.027Z,6.40
2019-05-10T20:58:01.651Z,6.20
2019-05-10T21:00:28.530Z,6.10
2019-05-10T21:02:56.057Z,6.00
2019-05-10T21:05:22.897Z,5.90
2019-05-10T21:07:49.743Z,5.90
2019-05-10T21:10:17.312Z,5.80
2019-05-10T21:12:45.064Z,5.80
2019-05-10T21:15:12.626Z,5.80
2019-05-10T21:17:40.598Z,5.60
2019-05-10T21:20:07.951Z,5.60
2019-05-10T21:22:34.791Z,5.50
2019-05-10T21:25:02.150Z,5.50
2019-05-10T21:27:29.013Z,5.50
2019-05-10T21:29:57.063Z,5.40
2019-05-10T21:32:24.828Z,5.40
2019-05-10T21:34:51.772Z,5.30
2019-05-10T21:37:18.619Z,5.30
2019-05-10T21:39:45.458Z,5.30
2019-05-10T21:42:12.405Z,5.30
2019-05-10T21:44:39.249Z,5.20
2019-05-10T21:47:06.086Z,5.20
2019-05-10T21:49:32.828Z,5.20
2019-05-10T21:51:59.776Z,5.20
2019-05-10T21:54:26.720Z,5.10
2019-05-10T21:56:54.287Z,5.10
2019-05-10T21:59:22.048Z,5.10
2019-05-10T22:01:49.388Z,5.10
2019-05-10T22:04:16.137Z,5.10
2019-05-10T22:06:42.981Z,5.10
2019-05-10T22:09:09.941Z,5.20
2019-05-10T22:11:38.196Z,5.10
2019-05-10T22:14:05.575Z,5.10
2019-05-10T22:16:32.613Z,5.10
2019-05-10T22:19:14.298Z,5.10
2019-05-10T22:21:41.109Z,5.10
2019-05-10T22:24:07.911Z,5.10
2019-05-10T22:26:34.666Z,5.10
2019-05-10T22:29:01.418Z,5.00
2019-05-10T22:31:28.194Z,5.00
2019-05-10T22:33:55.814Z,5.00
2019-05-10T22:36:23.425Z,4.90
2019-05-10T22:39:05.969Z,4.90
2019-05-10T22:41:18.637Z,4.90
2019-05-10T22:43:45.732Z,4.90
2019-05-10T22:46:13.274Z,4.90
2019-05-10T22:48:40.035Z,4.90
2019-05-10T22:51:06.893Z,4.90
2019-05-10T22:53:33.685Z,4.90
2019-05-10T22:56:00.709Z,4.80
2019-05-10T22:58:27.540Z,4.80
2019-05-10T23:00:55.516Z,4.70
2019-05-10T23:03:24.614Z,4.70
2019-05-10T23:05:49.495Z,4.70
2019-05-10T23:08:16.409Z,4.70
2019-05-10T23:10:44.452Z,4.70
2019-05-10T23:13:13.035Z,4.70
2019-05-10T23:15:40.885Z,4.50
2019-05-10T23:18:08.668Z,4.50
2019-05-10T23:20:37.862Z,4.40
2019-05-10T23:23:08.138Z,4.40
2019-05-10T23:25:35.231Z,4.30
2019-05-10T23:28:01.985Z,4.40
2019-05-10T23:30:28.835Z,4.30
2019-05-10T23:32:56.433Z,4.20
2019-05-10T23:35:24.583Z,4.20
2019-05-10T23:37:52.713Z,4.20
2019-05-10T23:40:19.452Z,4.20
2019-05-10T23:42:46.266Z,4.20
2019-05-10T23:45:13.323Z,4.20
2019-05-10T23:47:40.188Z,4.20
2019-05-10T23:50:07.097Z,4.30
2019-05-10T23:52:33.892Z,4.30
2019-05-10T23:55:00.639Z,4.40
2019-05-10T23:57:28.188Z,4.30
2019-05-10T23:59:55.102Z,4.20
